sensor_id;sensor_type;location;lat;lon;timestamp;P1;durP1;ratioP1;P2;durP2;ratioP2
22652;SDS011;11493;43.344;26.226;2022-07-06T00:02:05;7.28;;;3.78;;
22652;SDS011;11493;43.344;26.226;2022-07-06T00:04:32;7.85;;;3.92;;
22652;SDS011;11493;43.344;26.226;2022-07-06T00:06:59;6.70;;;3.65;;
22652;SDS011;11493;43.344;26.226;2022-07-06T00:09:27;4.07;;;3.67;;
22652;SDS011;11493;43.344;26.226;2022-07-06T00:11:54;9.77;;;4.15;;
22652;SDS011;11493;43.344;26.226;2022-07-06T00:14:21;7.65;;;3.78;;
22652;SDS011;11493;43.344;26.226;2022-07-06T00:16:48;6.78;;;3.67;;
22652;SDS011;11493;43.344;26.226;2022-07-06T00:19:16;7.35;;;3.80;;
22652;SDS011;11493;43.344;26.226;2022-07-06T00:21:43;4.07;;;3.60;;
22652;SDS011;11493;43.344;26.226;2022-07-06T00:24:10;6.05;;;5.53;;
22652;SDS011;11493;43.344;26.226;2022-07-06T00:26:38;12.18;;;8.05;;
22652;SDS011;11493;43.344;26.226;2022-07-06T00:29:06;7.93;;;7.43;;
22652;SDS011;11493;43.344;26.226;2022-07-06T00:31:33;6.75;;;4.53;;
22652;SDS011;11493;43.344;26.226;2022-07-06T00:34:00;4.25;;;3.33;;
22652;SDS011;11493;43.344;26.226;2022-07-06T00:36:27;4.65;;;3.22;;
22652;SDS011;11493;43.344;26.226;2022-07-06T00:38:54;10.10;;;3.55;;
22652;SDS011;11493;43.344;26.226;2022-07-06T00:41:22;3.83;;;3.45;;
22652;SDS011;11493;43.344;26.226;2022-07-06T00:43:53;5.95;;;3.70;;
22652;SDS011;11493;43.344;26.226;2022-07-06T00:46:23;3.95;;;2.92;;
22652;SDS011;11493;43.344;26.226;2022-07-06T00:48:55;10.50;;;3.35;;
22652;SDS011;11493;43.344;26.226;2022-07-06T00:51:24;3.33;;;3.00;;
22652;SDS011;11493;43.344;26.226;2022-07-06T00:53:57;3.53;;;3.22;;
22652;SDS011;11493;43.344;26.226;2022-07-06T00:56:28;3.60;;;3.10;;
22652;SDS011;11493;43.344;26.226;2022-07-06T00:59:01;4.57;;;3.33;;
22652;SDS011;11493;43.344;26.226;2022-07-06T01:01:28;8.57;;;3.58;;
22652;SDS011;11493;43.344;26.226;2022-07-06T01:03:56;3.90;;;3.20;;
22652;SDS011;11493;43.344;26.226;2022-07-06T01:06:23;4.35;;;3.15;;
22652;SDS011;11493;43.344;26.226;2022-07-06T01:08:52;7.53;;;3.25;;
22652;SDS011;11493;43.344;26.226;2022-07-06T01:11:21;10.25;;;3.90;;
22652;SDS011;11493;43.344;26.226;2022-07-06T01:13:49;6.18;;;3.53;;
22652;SDS011;11493;43.344;26.226;2022-07-06T01:16:17;9.70;;;3.30;;
22652;SDS011;11493;43.344;26.226;2022-07-06T01:18:45;8.57;;;3.55;;
22652;SDS011;11493;43.344;26.226;2022-07-06T01:21:14;8.30;;;3.80;;
22652;SDS011;11493;43.344;26.226;2022-07-06T01:23:43;5.43;;;3.58;;
22652;SDS011;11493;43.344;26.226;2022-07-06T01:26:16;4.30;;;3.03;;
22652;SDS011;11493;43.344;26.226;2022-07-06T01:28:50;3.60;;;3.30;;
22652;SDS011;11493;43.344;26.226;2022-07-06T01:31:23;7.88;;;3.97;;
22652;SDS011;11493;43.344;26.226;2022-07-06T01:33:53;7.95;;;3.47;;
22652;SDS011;11493;43.344;26.226;2022-07-06T01:36:23;5.75;;;3.70;;
22652;SDS011;11493;43.344;26.226;2022-07-06T01:38:54;4.00;;;3.53;;
22652;SDS011;11493;43.344;26.226;2022-07-06T01:41:25;8.07;;;3.63;;
22652;SDS011;11493;43.344;26.226;2022-07-06T01:43:53;8.88;;;4.50;;
22652;SDS011;11493;43.344;26.226;2022-07-06T01:46:21;6.30;;;3.92;;
22652;SDS011;11493;43.344;26.226;2022-07-06T01:48:48;5.60;;;4.30;;
22652;SDS011;11493;43.344;26.226;2022-07-06T01:51:15;6.55;;;4.03;;
22652;SDS011;11493;43.344;26.226;2022-07-06T01:53:44;8.93;;;4.28;;
22652;SDS011;11493;43.344;26.226;2022-07-06T01:56:14;13.85;;;4.32;;
22652;SDS011;11493;43.344;26.226;2022-07-06T01:58:45;7.63;;;4.05;;
22652;SDS011;11493;43.344;26.226;2022-07-06T02:01:14;5.25;;;3.80;;
22652;SDS011;11493;43.344;26.226;2022-07-06T02:03:44;5.80;;;3.95;;
22652;SDS011;11493;43.344;26.226;2022-07-06T02:06:12;5.93;;;4.03;;
22652;SDS011;11493;43.344;26.226;2022-07-06T02:08:41;4.50;;;4.00;;
22652;SDS011;11493;43.344;26.226;2022-07-06T02:11:09;12.63;;;3.92;;
22652;SDS011;11493;43.344;26.226;2022-07-06T02:13:38;5.38;;;3.90;;
22652;SDS011;11493;43.344;26.226;2022-07-06T02:16:29;5.32;;;3.90;;
22652;SDS011;11493;43.344;26.226;2022-07-06T02:18:57;4.40;;;3.67;;
22652;SDS011;11493;43.344;26.226;2022-07-06T02:21:27;4.03;;;3.63;;
22652;SDS011;11493;43.344;26.226;2022-07-06T02:23:54;9.35;;;4.35;;
22652;SDS011;11493;43.344;26.226;2022-07-06T02:26:22;7.30;;;3.72;;
22652;SDS011;11493;43.344;26.226;2022-07-06T02:28:50;3.70;;;3.40;;
22652;SDS011;11493;43.344;26.226;2022-07-06T02:31:17;6.20;;;4.15;;
22652;SDS011;11493;43.344;26.226;2022-07-06T02:33:46;9.40;;;3.40;;
22652;SDS011;11493;43.344;26.226;2022-07-06T02:36:14;10.00;;;4.28;;
22652;SDS011;11493;43.344;26.226;2022-07-06T02:38:42;14.00;;;3.90;;
22652;SDS011;11493;43.344;26.226;2022-07-06T02:41:10;9.07;;;4.00;;
22652;SDS011;11493;43.344;26.226;2022-07-06T02:43:37;6.22;;;4.05;;
22652;SDS011;11493;43.344;26.226;2022-07-06T02:46:05;4.63;;;3.75;;
22652;SDS011;11493;43.344;26.226;2022-07-06T02:48:33;6.68;;;4.45;;
22652;SDS011;11493;43.344;26.226;2022-07-06T02:51:01;14.82;;;5.05;;
22652;SDS011;11493;43.344;26.226;2022-07-06T02:53:29;11.93;;;4.38;;
22652;SDS011;11493;43.344;26.226;2022-07-06T02:55:56;8.70;;;4.35;;
22652;SDS011;11493;43.344;26.226;2022-07-06T02:58:24;9.43;;;4.13;;
22652;SDS011;11493;43.344;26.226;2022-07-06T03:00:52;11.20;;;4.57;;
22652;SDS011;11493;43.344;26.226;2022-07-06T03:03:19;7.05;;;3.95;;
22652;SDS011;11493;43.344;26.226;2022-07-06T03:05:47;13.20;;;4.32;;
22652;SDS011;11493;43.344;26.226;2022-07-06T03:08:17;10.80;;;4.40;;
22652;SDS011;11493;43.344;26.226;2022-07-06T03:10:45;9.30;;;4.88;;
22652;SDS011;11493;43.344;26.226;2022-07-06T03:13:13;5.35;;;4.00;;
22652;SDS011;11493;43.344;26.226;2022-07-06T03:15:40;6.00;;;4.47;;
22652;SDS011;11493;43.344;26.226;2022-07-06T03:18:08;6.57;;;4.47;;
22652;SDS011;11493;43.344;26.226;2022-07-06T03:20:35;5.40;;;4.90;;
22652;SDS011;11493;43.344;26.226;2022-07-06T03:23:05;8.98;;;5.10;;
22652;SDS011;11493;43.344;26.226;2022-07-06T03:25:33;9.40;;;4.82;;
22652;SDS011;11493;43.344;26.226;2022-07-06T03:28:01;12.00;;;4.95;;
22652;SDS011;11493;43.344;26.226;2022-07-06T03:30:28;11.13;;;6.05;;
22652;SDS011;11493;43.344;26.226;2022-07-06T03:32:57;19.02;;;4.90;;
22652;SDS011;11493;43.344;26.226;2022-07-06T03:35:27;12.68;;;4.78;;
22652;SDS011;11493;43.344;26.226;2022-07-06T03:37:55;9.77;;;5.50;;
22652;SDS011;11493;43.344;26.226;2022-07-06T03:40:25;10.00;;;5.80;;
22652;SDS011;11493;43.344;26.226;2022-07-06T03:42:53;9.98;;;5.57;;
22652;SDS011;11493;43.344;26.226;2022-07-06T03:45:20;14.05;;;6.07;;
22652;SDS011;11493;43.344;26.226;2022-07-06T03:47:48;12.25;;;6.38;;
22652;SDS011;11493;43.344;26.226;2022-07-06T03:50:15;10.10;;;5.78;;
22652;SDS011;11493;43.344;26.226;2022-07-06T03:52:43;10.65;;;6.03;;
22652;SDS011;11493;43.344;26.226;2022-07-06T03:55:11;13.43;;;6.93;;
22652;SDS011;11493;43.344;26.226;2022-07-06T03:57:44;16.63;;;7.10;;
22652;SDS011;11493;43.344;26.226;2022-07-06T04:00:15;17.85;;;5.93;;
22652;SDS011;11493;43.344;26.226;2022-07-06T04:02:48;11.57;;;6.72;;
22652;SDS011;11493;43.344;26.226;2022-07-06T04:05:20;9.85;;;6.85;;
22652;SDS011;11493;43.344;26.226;2022-07-06T04:07:50;11.80;;;7.00;;
22652;SDS011;11493;43.344;26.226;2022-07-06T04:10:19;14.88;;;7.05;;
22652;SDS011;11493;43.344;26.226;2022-07-06T04:12:47;19.58;;;7.50;;
22652;SDS011;11493;43.344;26.226;2022-07-06T04:15:17;19.80;;;8.38;;
22652;SDS011;11493;43.344;26.226;2022-07-06T04:17:44;18.77;;;8.32;;
22652;SDS011;11493;43.344;26.226;2022-07-06T04:20:26;11.70;;;7.40;;
22652;SDS011;11493;43.344;26.226;2022-07-06T04:22:54;14.13;;;8.00;;
22652;SDS011;11493;43.344;26.226;2022-07-06T04:25:23;10.82;;;7.00;;
22652;SDS011;11493;43.344;26.226;2022-07-06T04:27:52;15.38;;;8.85;;
22652;SDS011;11493;43.344;26.226;2022-07-06T04:30:20;10.23;;;8.18;;
22652;SDS011;11493;43.344;26.226;2022-07-06T04:32:47;14.15;;;8.15;;
22652;SDS011;11493;43.344;26.226;2022-07-06T04:35:16;11.50;;;7.85;;
22652;SDS011;11493;43.344;26.226;2022-07-06T04:37:45;11.20;;;8.38;;
22652;SDS011;11493;43.344;26.226;2022-07-06T04:40:15;14.38;;;8.80;;
22652;SDS011;11493;43.344;26.226;2022-07-06T04:42:47;9.85;;;8.27;;
22652;SDS011;11493;43.344;26.226;2022-07-06T04:45:16;10.45;;;8.68;;
22652;SDS011;11493;43.344;26.226;2022-07-06T04:47:43;13.73;;;8.10;;
22652;SDS011;11493;43.344;26.226;2022-07-06T04:50:12;17.92;;;7.85;;
22652;SDS011;11493;43.344;26.226;2022-07-06T04:52:40;16.95;;;8.85;;
22652;SDS011;11493;43.344;26.226;2022-07-06T04:55:09;16.75;;;8.32;;
22652;SDS011;11493;43.344;26.226;2022-07-06T04:57:36;8.68;;;7.97;;
22652;SDS011;11493;43.344;26.226;2022-07-06T05:00:05;10.68;;;8.20;;
22652;SDS011;11493;43.344;26.226;2022-07-06T05:02:33;9.90;;;7.70;;
22652;SDS011;11493;43.344;26.226;2022-07-06T05:05:00;11.50;;;7.88;;
22652;SDS011;11493;43.344;26.226;2022-07-06T05:07:28;10.27;;;8.55;;
22652;SDS011;11493;43.344;26.226;2022-07-06T05:09:57;9.27;;;8.05;;
22652;SDS011;11493;43.344;26.226;2022-07-06T05:12:25;12.90;;;8.00;;
22652;SDS011;11493;43.344;26.226;2022-07-06T05:14:52;9.45;;;8.57;;
22652;SDS011;11493;43.344;26.226;2022-07-06T05:17:22;11.65;;;9.40;;
22652;SDS011;11493;43.344;26.226;2022-07-06T05:19:57;11.70;;;8.50;;
22652;SDS011;11493;43.344;26.226;2022-07-06T05:22:25;11.52;;;8.48;;
22652;SDS011;11493;43.344;26.226;2022-07-06T05:24:53;17.00;;;8.82;;
22652;SDS011;11493;43.344;26.226;2022-07-06T05:27:21;9.57;;;8.60;;
22652;SDS011;11493;43.344;26.226;2022-07-06T05:29:49;10.50;;;8.35;;
22652;SDS011;11493;43.344;26.226;2022-07-06T05:32:16;10.40;;;8.15;;
22652;SDS011;11493;43.344;26.226;2022-07-06T05:34:44;9.13;;;8.30;;
22652;SDS011;11493;43.344;26.226;2022-07-06T05:37:12;9.88;;;8.98;;
22652;SDS011;11493;43.344;26.226;2022-07-06T05:39:41;9.80;;;8.27;;
22652;SDS011;11493;43.344;26.226;2022-07-06T05:42:11;8.85;;;8.02;;
22652;SDS011;11493;43.344;26.226;2022-07-06T05:44:40;13.93;;;8.13;;
22652;SDS011;11493;43.344;26.226;2022-07-06T05:47:08;9.60;;;8.60;;
22652;SDS011;11493;43.344;26.226;2022-07-06T05:49:54;9.73;;;8.23;;
22652;SDS011;11493;43.344;26.226;2022-07-06T05:52:55;9.13;;;8.23;;
22652;SDS011;11493;43.344;26.226;2022-07-06T05:55:24;9.63;;;8.65;;
22652;SDS011;11493;43.344;26.226;2022-07-06T05:57:53;10.38;;;9.18;;
22652;SDS011;11493;43.344;26.226;2022-07-06T06:00:24;9.77;;;8.73;;
22652;SDS011;11493;43.344;26.226;2022-07-06T06:02:56;12.10;;;9.43;;
22652;SDS011;11493;43.344;26.226;2022-07-06T06:05:25;10.27;;;9.27;;
22652;SDS011;11493;43.344;26.226;2022-07-06T06:07:58;10.45;;;9.48;;
22652;SDS011;11493;43.344;26.226;2022-07-06T06:10:26;10.10;;;8.65;;
22652;SDS011;11493;43.344;26.226;2022-07-06T06:12:57;14.82;;;9.13;;
22652;SDS011;11493;43.344;26.226;2022-07-06T06:15:26;9.63;;;8.82;;
22652;SDS011;11493;43.344;26.226;2022-07-06T06:17:53;9.68;;;8.77;;
22652;SDS011;11493;43.344;26.226;2022-07-06T06:20:20;10.02;;;8.70;;
22652;SDS011;11493;43.344;26.226;2022-07-06T06:22:52;20.88;;;9.57;;
22652;SDS011;11493;43.344;26.226;2022-07-06T06:25:27;10.27;;;9.00;;
22652;SDS011;11493;43.344;26.226;2022-07-06T06:27:56;10.35;;;9.35;;
22652;SDS011;11493;43.344;26.226;2022-07-06T06:30:24;9.98;;;8.95;;
22652;SDS011;11493;43.344;26.226;2022-07-06T06:33:04;16.40;;;9.32;;
22652;SDS011;11493;43.344;26.226;2022-07-06T06:35:32;11.55;;;9.77;;
22652;SDS011;11493;43.344;26.226;2022-07-06T06:37:59;9.32;;;8.35;;
22652;SDS011;11493;43.344;26.226;2022-07-06T06:40:26;10.35;;;9.38;;
22652;SDS011;11493;43.344;26.226;2022-07-06T06:42:54;9.93;;;8.88;;
22652;SDS011;11493;43.344;26.226;2022-07-06T06:45:22;13.13;;;9.32;;
22652;SDS011;11493;43.344;26.226;2022-07-06T06:47:49;10.07;;;9.05;;
22652;SDS011;11493;43.344;26.226;2022-07-06T06:50:17;11.88;;;8.65;;
22652;SDS011;11493;43.344;26.226;2022-07-06T06:52:44;9.80;;;8.90;;
22652;SDS011;11493;43.344;26.226;2022-07-06T06:55:12;11.95;;;8.63;;
22652;SDS011;11493;43.344;26.226;2022-07-06T06:57:39;9.32;;;7.50;;
22652;SDS011;11493;43.344;26.226;2022-07-06T07:00:06;10.02;;;9.23;;
22652;SDS011;11493;43.344;26.226;2022-07-06T07:02:35;9.82;;;8.63;;
22652;SDS011;11493;43.344;26.226;2022-07-06T07:05:02;8.20;;;7.50;;
22652;SDS011;11493;43.344;26.226;2022-07-06T07:07:30;14.65;;;8.55;;
22652;SDS011;11493;43.344;26.226;2022-07-06T07:09:57;11.98;;;8.10;;
22652;SDS011;11493;43.344;26.226;2022-07-06T07:12:25;9.38;;;8.48;;
22652;SDS011;11493;43.344;26.226;2022-07-06T07:14:52;9.80;;;8.77;;
22652;SDS011;11493;43.344;26.226;2022-07-06T07:17:19;12.85;;;8.98;;
22652;SDS011;11493;43.344;26.226;2022-07-06T07:19:47;9.40;;;8.00;;
22652;SDS011;11493;43.344;26.226;2022-07-06T07:22:14;10.75;;;7.50;;
22652;SDS011;11493;43.344;26.226;2022-07-06T07:24:41;12.02;;;8.05;;
22652;SDS011;11493;43.344;26.226;2022-07-06T07:27:08;9.75;;;7.63;;
22652;SDS011;11493;43.344;26.226;2022-07-06T07:29:35;9.85;;;7.47;;
22652;SDS011;11493;43.344;26.226;2022-07-06T07:32:03;9.00;;;8.15;;
22652;SDS011;11493;43.344;26.226;2022-07-06T07:34:30;14.57;;;8.05;;
22652;SDS011;11493;43.344;26.226;2022-07-06T07:36:58;7.97;;;7.38;;
22652;SDS011;11493;43.344;26.226;2022-07-06T07:39:25;8.65;;;7.88;;
22652;SDS011;11493;43.344;26.226;2022-07-06T07:41:53;9.25;;;7.78;;
22652;SDS011;11493;43.344;26.226;2022-07-06T07:44:20;14.60;;;7.55;;
22652;SDS011;11493;43.344;26.226;2022-07-06T07:46:48;7.85;;;7.03;;
22652;SDS011;11493;43.344;26.226;2022-07-06T07:49:15;9.50;;;6.30;;
22652;SDS011;11493;43.344;26.226;2022-07-06T07:51:47;10.93;;;7.20;;
22652;SDS011;11493;43.344;26.226;2022-07-06T07:54:16;7.63;;;6.97;;
22652;SDS011;11493;43.344;26.226;2022-07-06T07:56:43;7.25;;;6.55;;
22652;SDS011;11493;43.344;26.226;2022-07-06T07:59:10;7.43;;;6.75;;
22652;SDS011;11493;43.344;26.226;2022-07-06T08:01:39;7.45;;;6.78;;
22652;SDS011;11493;43.344;26.226;2022-07-06T08:04:07;10.10;;;7.00;;
22652;SDS011;11493;43.344;26.226;2022-07-06T08:06:35;7.68;;;6.97;;
22652;SDS011;11493;43.344;26.226;2022-07-06T08:09:02;7.05;;;6.53;;
22652;SDS011;11493;43.344;26.226;2022-07-06T08:11:31;7.38;;;6.78;;
22652;SDS011;11493;43.344;26.226;2022-07-06T08:13:58;7.40;;;6.75;;
22652;SDS011;11493;43.344;26.226;2022-07-06T08:16:26;9.13;;;6.65;;
22652;SDS011;11493;43.344;26.226;2022-07-06T08:18:53;8.80;;;6.80;;
22652;SDS011;11493;43.344;26.226;2022-07-06T08:21:21;10.52;;;6.78;;
22652;SDS011;11493;43.344;26.226;2022-07-06T08:23:52;8.18;;;6.22;;
22652;SDS011;11493;43.344;26.226;2022-07-06T08:26:21;8.55;;;6.50;;
22652;SDS011;11493;43.344;26.226;2022-07-06T08:28:48;6.78;;;6.28;;
22652;SDS011;11493;43.344;26.226;2022-07-06T08:31:16;6.80;;;6.10;;
22652;SDS011;11493;43.344;26.226;2022-07-06T08:34:03;14.10;;;7.45;;
22652;SDS011;11493;43.344;26.226;2022-07-06T08:36:31;7.45;;;6.72;;
22652;SDS011;11493;43.344;26.226;2022-07-06T08:38:58;7.13;;;6.20;;
22652;SDS011;11493;43.344;26.226;2022-07-06T08:41:27;9.00;;;6.28;;
22652;SDS011;11493;43.344;26.226;2022-07-06T08:43:56;6.65;;;6.03;;
22652;SDS011;11493;43.344;26.226;2022-07-06T08:46:23;11.50;;;5.80;;
22652;SDS011;11493;43.344;26.226;2022-07-06T08:48:51;8.57;;;6.45;;
22652;SDS011;11493;43.344;26.226;2022-07-06T08:51:20;8.05;;;6.50;;
22652;SDS011;11493;43.344;26.226;2022-07-06T08:53:55;6.25;;;5.75;;
22652;SDS011;11493;43.344;26.226;2022-07-06T08:56:24;6.93;;;5.88;;
22652;SDS011;11493;43.344;26.226;2022-07-06T08:58:52;8.63;;;5.88;;
22652;SDS011;11493;43.344;26.226;2022-07-06T09:01:21;5.80;;;5.30;;
22652;SDS011;11493;43.344;26.226;2022-07-06T09:03:49;6.43;;;5.78;;
22652;SDS011;11493;43.344;26.226;2022-07-06T09:06:19;8.73;;;6.30;;
22652;SDS011;11493;43.344;26.226;2022-07-06T09:08:55;7.90;;;5.53;;
22652;SDS011;11493;43.344;26.226;2022-07-06T09:11:24;6.78;;;5.70;;
22652;SDS011;11493;43.344;26.226;2022-07-06T09:13:52;6.43;;;5.40;;
22652;SDS011;11493;43.344;26.226;2022-07-06T09:16:25;9.00;;;5.55;;
22652;SDS011;11493;43.344;26.226;2022-07-06T09:19:10;6.20;;;5.03;;
22652;SDS011;11493;43.344;26.226;2022-07-06T09:21:39;6.30;;;5.70;;
22652;SDS011;11493;43.344;26.226;2022-07-06T09:24:10;6.00;;;4.43;;
22652;SDS011;11493;43.344;26.226;2022-07-06T09:26:39;6.78;;;5.10;;
22652;SDS011;11493;43.344;26.226;2022-07-06T09:29:08;5.40;;;4.82;;
22652;SDS011;11493;43.344;26.226;2022-07-06T09:31:35;5.57;;;5.07;;
22652;SDS011;11493;43.344;26.226;2022-07-06T09:34:04;5.95;;;5.03;;
22652;SDS011;11493;43.344;26.226;2022-07-06T09:36:40;7.22;;;5.32;;
22652;SDS011;11493;43.344;26.226;2022-07-06T09:41:44;11.48;;;5.40;;
22652;SDS011;11493;43.344;26.226;2022-07-06T09:44:13;11.48;;;5.78;;
22652;SDS011;11493;43.344;26.226;2022-07-06T09:46:46;8.27;;;6.07;;
22652;SDS011;11493;43.344;26.226;2022-07-06T09:49:17;7.93;;;6.15;;
22652;SDS011;11493;43.344;26.226;2022-07-06T09:51:47;6.70;;;5.00;;
22652;SDS011;11493;43.344;26.226;2022-07-06T09:56:44;6.65;;;6.05;;
22652;SDS011;11493;43.344;26.226;2022-07-06T09:59:20;6.85;;;5.60;;
22652;SDS011;11493;43.344;26.226;2022-07-06T10:01:52;10.65;;;5.32;;
22652;SDS011;11493;43.344;26.226;2022-07-06T10:04:22;7.68;;;4.90;;
22652;SDS011;11493;43.344;26.226;2022-07-06T10:06:50;6.00;;;4.85;;
22652;SDS011;11493;43.344;26.226;2022-07-06T10:09:19;8.40;;;5.38;;
22652;SDS011;11493;43.344;26.226;2022-07-06T10:11:49;6.05;;;5.57;;
22652;SDS011;11493;43.344;26.226;2022-07-06T10:14:17;5.68;;;5.28;;
22652;SDS011;11493;43.344;26.226;2022-07-06T10:16:47;8.63;;;5.75;;
22652;SDS011;11493;43.344;26.226;2022-07-06T10:19:16;8.98;;;5.32;;
22652;SDS011;11493;43.344;26.226;2022-07-06T10:21:44;6.28;;;5.40;;
22652;SDS011;11493;43.344;26.226;2022-07-06T10:24:12;9.20;;;5.28;;
22652;SDS011;11493;43.344;26.226;2022-07-06T10:26:41;11.40;;;6.70;;
22652;SDS011;11493;43.344;26.226;2022-07-06T10:29:09;7.95;;;5.97;;
22652;SDS011;11493;43.344;26.226;2022-07-06T10:31:40;8.50;;;6.30;;
22652;SDS011;11493;43.344;26.226;2022-07-06T10:34:12;9.25;;;5.65;;
22652;SDS011;11493;43.344;26.226;2022-07-06T10:36:42;6.37;;;5.73;;
22652;SDS011;11493;43.344;26.226;2022-07-06T10:39:11;11.38;;;5.90;;
22652;SDS011;11493;43.344;26.226;2022-07-06T10:41:57;7.40;;;5.30;;
22652;SDS011;11493;43.344;26.226;2022-07-06T10:44:25;6.00;;;5.53;;
22652;SDS011;11493;43.344;26.226;2022-07-06T10:46:54;12.75;;;5.75;;
22652;SDS011;11493;43.344;26.226;2022-07-06T10:49:24;9.95;;;5.60;;
22652;SDS011;11493;43.344;26.226;2022-07-06T10:52:17;11.02;;;5.68;;
22652;SDS011;11493;43.344;26.226;2022-07-06T10:54:44;7.13;;;5.72;;
22652;SDS011;11493;43.344;26.226;2022-07-06T10:57:13;7.50;;;5.50;;
22652;SDS011;11493;43.344;26.226;2022-07-06T11:02:39;5.38;;;4.88;;
22652;SDS011;11493;43.344;26.226;2022-07-06T11:05:11;5.55;;;5.10;;
22652;SDS011;11493;43.344;26.226;2022-07-06T11:08:21;6.45;;;5.35;;
22652;SDS011;11493;43.344;26.226;2022-07-06T11:10:52;6.57;;;4.90;;
22652;SDS011;11493;43.344;26.226;2022-07-06T11:13:26;7.97;;;5.15;;
22652;SDS011;11493;43.344;26.226;2022-07-06T11:16:01;7.57;;;4.53;;
22652;SDS011;11493;43.344;26.226;2022-07-06T11:18:39;6.65;;;4.57;;
22652;SDS011;11493;43.344;26.226;2022-07-06T11:21:23;4.93;;;4.47;;
22652;SDS011;11493;43.344;26.226;2022-07-06T11:23:58;5.95;;;4.65;;
22652;SDS011;11493;43.344;26.226;2022-07-06T11:26:27;6.43;;;4.35;;
22652;SDS011;11493;43.344;26.226;2022-07-06T11:28:58;6.05;;;4.13;;
22652;SDS011;11493;43.344;26.226;2022-07-06T11:31:26;8.27;;;4.40;;
22652;SDS011;11493;43.344;26.226;2022-07-06T11:33:54;4.68;;;4.28;;
22652;SDS011;11493;43.344;26.226;2022-07-06T11:36:21;6.53;;;4.57;;
22652;SDS011;11493;43.344;26.226;2022-07-06T11:38:49;6.30;;;4.60;;
22652;SDS011;11493;43.344;26.226;2022-07-06T11:41:17;6.55;;;4.32;;
22652;SDS011;11493;43.344;26.226;2022-07-06T11:43:47;5.00;;;4.50;;
22652;SDS011;11493;43.344;26.226;2022-07-06T11:46:21;4.55;;;4.15;;
22652;SDS011;11493;43.344;26.226;2022-07-06T11:48:57;6.80;;;4.28;;
22652;SDS011;11493;43.344;26.226;2022-07-06T11:51:29;5.28;;;4.43;;
22652;SDS011;11493;43.344;26.226;2022-07-06T11:54:00;5.13;;;4.75;;
22652;SDS011;11493;43.344;26.226;2022-07-06T11:56:29;5.20;;;4.70;;
22652;SDS011;11493;43.344;26.226;2022-07-06T11:58:58;5.95;;;4.43;;
22652;SDS011;11493;43.344;26.226;2022-07-06T12:01:27;4.57;;;4.22;;
22652;SDS011;11493;43.344;26.226;2022-07-06T12:03:58;8.27;;;4.78;;
22652;SDS011;11493;43.344;26.226;2022-07-06T12:06:27;5.82;;;5.18;;
22652;SDS011;11493;43.344;26.226;2022-07-06T12:09:00;9.65;;;5.32;;
22652;SDS011;11493;43.344;26.226;2022-07-06T12:11:34;5.25;;;4.68;;
22652;SDS011;11493;43.344;26.226;2022-07-06T12:14:03;7.10;;;4.72;;
22652;SDS011;11493;43.344;26.226;2022-07-06T12:16:41;4.63;;;4.32;;
22652;SDS011;11493;43.344;26.226;2022-07-06T12:19:09;5.28;;;4.78;;
22652;SDS011;11493;43.344;26.226;2022-07-06T12:21:48;5.00;;;4.50;;
22652;SDS011;11493;43.344;26.226;2022-07-06T12:24:20;5.07;;;4.65;;
22652;SDS011;11493;43.344;26.226;2022-07-06T12:26:50;5.22;;;4.57;;
22652;SDS011;11493;43.344;26.226;2022-07-06T12:29:19;11.15;;;4.60;;
22652;SDS011;11493;43.344;26.226;2022-07-06T12:34:23;4.45;;;4.07;;
22652;SDS011;11493;43.344;26.226;2022-07-06T12:36:57;7.47;;;3.70;;
22652;SDS011;11493;43.344;26.226;2022-07-06T12:39:40;4.95;;;3.70;;
22652;SDS011;11493;43.344;26.226;2022-07-06T12:42:15;5.32;;;3.60;;
22652;SDS011;11493;43.344;26.226;2022-07-06T12:47:16;3.80;;;3.50;;
22652;SDS011;11493;43.344;26.226;2022-07-06T12:49:45;4.25;;;3.95;;
22652;SDS011;11493;43.344;26.226;2022-07-06T12:52:13;4.93;;;3.92;;
22652;SDS011;11493;43.344;26.226;2022-07-06T13:02:25;4.68;;;3.63;;
22652;SDS011;11493;43.344;26.226;2022-07-06T13:07:45;4.68;;;3.58;;
22652;SDS011;11493;43.344;26.226;2022-07-06T13:10:14;5.18;;;3.92;;
22652;SDS011;11493;43.344;26.226;2022-07-06T13:12:43;3.95;;;3.63;;
22652;SDS011;11493;43.344;26.226;2022-07-06T13:15:10;7.57;;;3.88;;
22652;SDS011;11493;43.344;26.226;2022-07-06T13:17:38;5.22;;;4.32;;
22652;SDS011;11493;43.344;26.226;2022-07-06T13:20:07;8.82;;;5.30;;
22652;SDS011;11493;43.344;26.226;2022-07-06T13:22:36;4.57;;;4.28;;
22652;SDS011;11493;43.344;26.226;2022-07-06T13:25:05;8.13;;;4.93;;
22652;SDS011;11493;43.344;26.226;2022-07-06T13:27:33;5.00;;;4.60;;
22652;SDS011;11493;43.344;26.226;2022-07-06T13:30:00;6.07;;;4.55;;
22652;SDS011;11493;43.344;26.226;2022-07-06T13:32:29;5.57;;;4.63;;
22652;SDS011;11493;43.344;26.226;2022-07-06T13:34:57;5.80;;;4.60;;
22652;SDS011;11493;43.344;26.226;2022-07-06T13:37:24;8.32;;;4.22;;
22652;SDS011;11493;43.344;26.226;2022-07-06T13:39:51;4.22;;;3.83;;
22652;SDS011;11493;43.344;26.226;2022-07-06T13:42:19;5.13;;;4.70;;
22652;SDS011;11493;43.344;26.226;2022-07-06T13:44:46;5.80;;;4.55;;
22652;SDS011;11493;43.344;26.226;2022-07-06T13:47:14;9.52;;;4.88;;
22652;SDS011;11493;43.344;26.226;2022-07-06T13:49:41;8.98;;;5.03;;
22652;SDS011;11493;43.344;26.226;2022-07-06T13:52:10;10.75;;;5.50;;
22652;SDS011;11493;43.344;26.226;2022-07-06T13:54:37;8.68;;;5.90;;
22652;SDS011;11493;43.344;26.226;2022-07-06T13:57:05;6.60;;;6.10;;
22652;SDS011;11493;43.344;26.226;2022-07-06T13:59:33;7.45;;;6.32;;
22652;SDS011;11493;43.344;26.226;2022-07-06T14:02:00;10.63;;;6.75;;
22652;SDS011;11493;43.344;26.226;2022-07-06T14:04:28;9.82;;;6.43;;
22652;SDS011;11493;43.344;26.226;2022-07-06T14:06:55;8.95;;;7.13;;
22652;SDS011;11493;43.344;26.226;2022-07-06T14:09:23;11.32;;;7.63;;
22652;SDS011;11493;43.344;26.226;2022-07-06T14:11:50;8.73;;;7.85;;
22652;SDS011;11493;43.344;26.226;2022-07-06T14:14:18;8.05;;;7.25;;
22652;SDS011;11493;43.344;26.226;2022-07-06T14:16:45;7.55;;;6.88;;
22652;SDS011;11493;43.344;26.226;2022-07-06T14:19:13;9.90;;;7.97;;
22652;SDS011;11493;43.344;26.226;2022-07-06T14:21:46;7.30;;;6.70;;
22652;SDS011;11493;43.344;26.226;2022-07-06T14:24:14;7.03;;;6.53;;
22652;SDS011;11493;43.344;26.226;2022-07-06T14:26:41;12.02;;;7.15;;
22652;SDS011;11493;43.344;26.226;2022-07-06T14:29:09;10.82;;;5.97;;
22652;SDS011;11493;43.344;26.226;2022-07-06T14:31:36;12.40;;;5.57;;
22652;SDS011;11493;43.344;26.226;2022-07-06T14:34:04;7.78;;;5.85;;
22652;SDS011;11493;43.344;26.226;2022-07-06T14:36:32;8.65;;;5.43;;
22652;SDS011;11493;43.344;26.226;2022-07-06T14:39:01;5.35;;;4.95;;
22652;SDS011;11493;43.344;26.226;2022-07-06T14:41:28;7.80;;;5.90;;
22652;SDS011;11493;43.344;26.226;2022-07-06T14:43:56;6.30;;;5.68;;
22652;SDS011;11493;43.344;26.226;2022-07-06T14:46:23;6.68;;;6.07;;
22652;SDS011;11493;43.344;26.226;2022-07-06T14:48:50;8.57;;;5.07;;
22652;SDS011;11493;43.344;26.226;2022-07-06T14:51:18;5.93;;;5.53;;
22652;SDS011;11493;43.344;26.226;2022-07-06T14:53:45;7.65;;;6.65;;
22652;SDS011;11493;43.344;26.226;2022-07-06T14:56:13;7.18;;;6.47;;
22652;SDS011;11493;43.344;26.226;2022-07-06T14:58:40;6.63;;;6.13;;
22652;SDS011;11493;43.344;26.226;2022-07-06T15:01:27;10.60;;;6.90;;
22652;SDS011;11493;43.344;26.226;2022-07-06T15:03:55;7.85;;;6.85;;
22652;SDS011;11493;43.344;26.226;2022-07-06T15:06:22;6.88;;;6.25;;
22652;SDS011;11493;43.344;26.226;2022-07-06T15:09:10;8.10;;;7.30;;